sensor_id;sensor_type;location;lat;lon;timestamp;temperature;humidity
20481;DHT22;10399;50.754;3.366;2022-12-07T00:01:29;7.10;99.90
20481;DHT22;10399;50.754;3.366;2022-12-07T00:03:58;7.20;99.90
20481;DHT22;10399;50.754;3.366;2022-12-07T00:06:33;7.20;99.90
20481;DHT22;10399;50.754;3.366;2022-12-07T00:09:00;7.10;99.90
20481;DHT22;10399;50.754;3.366;2022-12-07T00:11:27;7.20;99.90
20481;DHT22;10399;50.754;3.366;2022-12-07T00:13:57;7.30;99.90
20481;DHT22;10399;50.754;3.366;2022-12-07T00:16:27;7.20;99.90
20481;DHT22;10399;50.754;3.366;2022-12-07T00:18:55;7.10;99.90
20481;DHT22;10399;50.754;3.366;2022-12-07T00:21:25;7.00;99.90
20481;DHT22;10399;50.754;3.366;2022-12-07T00:23:54;7.00;99.90
20481;DHT22;10399;50.754;3.366;2022-12-07T00:26:35;7.00;99.90
20481;DHT22;10399;50.754;3.366;2022-12-07T00:29:24;7.20;99.90
20481;DHT22;10399;50.754;3.366;2022-12-07T00:31:51;7.30;99.90
20481;DHT22;10399;50.754;3.366;2022-12-07T00:34:20;7.30;99.90
20481;DHT22;10399;50.754;3.366;2022-12-07T00:36:48;7.30;99.90
20481;DHT22;10399;50.754;3.366;2022-12-07T00:39:16;7.20;99.90
20481;DHT22;10399;50.754;3.366;2022-12-07T00:41:43;7.20;99.90
20481;DHT22;10399;50.754;3.366;2022-12-07T00:44:10;7.00;99.90
20481;DHT22;10399;50.754;3.366;2022-12-07T00:46:37;7.10;99.90
20481;DHT22;10399;50.754;3.366;2022-12-07T00:49:04;7.20;99.90
20481;DHT22;10399;50.754;3.366;2022-12-07T00:51:31;7.10;99.90
20481;DHT22;10399;50.754;3.366;2022-12-07T00:53:58;7.10;99.90
20481;DHT22;10399;50.754;3.366;2022-12-07T00:56:27;7.10;99.90
20481;DHT22;10399;50.754;3.366;2022-12-07T00:59:00;7.20;99.90
20481;DHT22;10399;50.754;3.366;2022-12-07T01:01:29;7.20;99.90
20481;DHT22;10399;50.754;3.366;2022-12-07T01:03:57;7.10;99.90
20481;DHT22;10399;50.754;3.366;2022-12-07T01:06:25;7.10;99.90
20481;DHT22;10399;50.754;3.366;2022-12-07T01:08:53;7.30;99.90
20481;DHT22;10399;50.754;3.366;2022-12-07T01:11:23;7.50;99.90
20481;DHT22;10399;50.754;3.366;2022-12-07T01:13:52;7.60;99.90
20481;DHT22;10399;50.754;3.366;2022-12-07T01:16:21;7.80;99.90
20481;DHT22;10399;50.754;3.366;2022-12-07T01:18:52;7.60;99.90
20481;DHT22;10399;50.754;3.366;2022-12-07T01:21:25;7.50;99.90
20481;DHT22;10399;50.754;3.366;2022-12-07T01:23:53;7.20;99.90
20481;DHT22;10399;50.754;3.366;2022-12-07T01:26:22;7.50;99.90
20481;DHT22;10399;50.754;3.366;2022-12-07T01:28:49;7.50;99.90
20481;DHT22;10399;50.754;3.366;2022-12-07T01:31:18;7.60;99.90
20481;DHT22;10399;50.754;3.366;2022-12-07T01:33:50;7.60;99.90
20481;DHT22;10399;50.754;3.366;2022-12-07T01:36:22;7.60;99.90
20481;DHT22;10399;50.754;3.366;2022-12-07T01:38:51;7.50;99.90
20481;DHT22;10399;50.754;3.366;2022-12-07T01:41:21;7.30;99.90
20481;DHT22;10399;50.754;3.366;2022-12-07T01:44:09;7.40;99.90
20481;DHT22;10399;50.754;3.366;2022-12-07T01:46:36;7.30;99.90
20481;DHT22;10399;50.754;3.366;2022-12-07T01:49:07;7.20;99.90
20481;DHT22;10399;50.754;3.366;2022-12-07T01:51:38;7.10;99.90
20481;DHT22;10399;50.754;3.366;2022-12-07T01:54:07;7.20;99.90
20481;DHT22;10399;50.754;3.366;2022-12-07T01:56:35;7.30;99.90
20481;DHT22;10399;50.754;3.366;2022-12-07T01:59:03;7.30;99.90
20481;DHT22;10399;50.754;3.366;2022-12-07T02:01:30;7.30;99.90
20481;DHT22;10399;50.754;3.366;2022-12-07T02:03:58;7.40;99.90
20481;DHT22;10399;50.754;3.366;2022-12-07T02:06:25;7.20;99.90
20481;DHT22;10399;50.754;3.366;2022-12-07T02:08:53;7.40;99.90
20481;DHT22;10399;50.754;3.366;2022-12-07T02:11:21;7.30;99.90
20481;DHT22;10399;50.754;3.366;2022-12-07T02:13:48;7.60;99.90
20481;DHT22;10399;50.754;3.366;2022-12-07T02:27:40;7.20;99.90
20481;DHT22;10399;50.754;3.366;2022-12-07T02:30:12;7.00;99.90
20481;DHT22;10399;50.754;3.366;2022-12-07T02:32:48;6.90;99.90
20481;DHT22;10399;50.754;3.366;2022-12-07T02:35:18;6.80;99.90
20481;DHT22;10399;50.754;3.366;2022-12-07T02:40:48;6.80;99.90
20481;DHT22;10399;50.754;3.366;2022-12-07T02:46:13;6.70;99.90
20481;DHT22;10399;50.754;3.366;2022-12-07T02:48:42;6.60;99.90
20481;DHT22;10399;50.754;3.366;2022-12-07T02:51:10;6.60;99.90
20481;DHT22;10399;50.754;3.366;2022-12-07T02:53:40;6.70;99.90
20481;DHT22;10399;50.754;3.366;2022-12-07T03:01:47;7.00;99.90
20481;DHT22;10399;50.754;3.366;2022-12-07T03:07:09;6.90;99.90
20481;DHT22;10399;50.754;3.366;2022-12-07T03:12:44;6.90;99.90
20481;DHT22;10399;50.754;3.366;2022-12-07T03:15:19;6.80;99.90
20481;DHT22;10399;50.754;3.366;2022-12-07T03:17:49;7.00;99.90
20481;DHT22;10399;50.754;3.366;2022-12-07T03:20:21;7.10;99.90
20481;DHT22;10399;50.754;3.366;2022-12-07T03:22:49;6.90;99.90
20481;DHT22;10399;50.754;3.366;2022-12-07T03:25:18;7.00;99.90
20481;DHT22;10399;50.754;3.366;2022-12-07T03:28:02;7.00;99.90
20481;DHT22;10399;50.754;3.366;2022-12-07T03:30:54;6.80;99.90
20481;DHT22;10399;50.754;3.366;2022-12-07T03:33:33;6.70;99.90
20481;DHT22;10399;50.754;3.366;2022-12-07T03:36:03;6.60;99.90
20481;DHT22;10399;50.754;3.366;2022-12-07T03:41:43;6.60;99.90
20481;DHT22;10399;50.754;3.366;2022-12-07T03:44:11;6.60;99.90
20481;DHT22;10399;50.754;3.366;2022-12-07T03:49:43;6.60;99.90
20481;DHT22;10399;50.754;3.366;2022-12-07T03:55:09;6.60;99.90
20481;DHT22;10399;50.754;3.366;2022-12-07T03:57:38;6.70;99.90
20481;DHT22;10399;50.754;3.366;2022-12-07T04:00:08;6.70;99.90
20481;DHT22;10399;50.754;3.366;2022-12-07T04:02:36;6.80;99.90
20481;DHT22;10399;50.754;3.366;2022-12-07T04:05:03;6.80;99.90
20481;DHT22;10399;50.754;3.366;2022-12-07T04:07:31;6.80;99.90
20481;DHT22;10399;50.754;3.366;2022-12-07T04:09:58;6.90;99.90
20481;DHT22;10399;50.754;3.366;2022-12-07T04:12:25;7.00;99.90
20481;DHT22;10399;50.754;3.366;2022-12-07T04:14:52;7.10;99.90
20481;DHT22;10399;50.754;3.366;2022-12-07T04:17:19;7.30;99.90
20481;DHT22;10399;50.754;3.366;2022-12-07T04:19:46;7.20;99.90
20481;DHT22;10399;50.754;3.366;2022-12-07T04:22:13;7.20;99.90
20481;DHT22;10399;50.754;3.366;2022-12-07T04:24:40;7.20;99.90
20481;DHT22;10399;50.754;3.366;2022-12-07T04:27:07;7.20;99.90
20481;DHT22;10399;50.754;3.366;2022-12-07T04:29:34;7.20;99.90
20481;DHT22;10399;50.754;3.366;2022-12-07T04:32:01;7.30;99.90
20481;DHT22;10399;50.754;3.366;2022-12-07T04:34:29;7.30;99.90
20481;DHT22;10399;50.754;3.366;2022-12-07T04:36:56;7.20;99.90
20481;DHT22;10399;50.754;3.366;2022-12-07T04:39:26;7.40;99.90
20481;DHT22;10399;50.754;3.366;2022-12-07T04:41:53;7.50;99.90
20481;DHT22;10399;50.754;3.366;2022-12-07T04:44:23;7.50;99.90
20481;DHT22;10399;50.754;3.366;2022-12-07T04:46:51;7.40;99.90
20481;DHT22;10399;50.754;3.366;2022-12-07T04:49:18;7.40;99.90
20481;DHT22;10399;50.754;3.366;2022-12-07T04:51:45;7.30;99.90
20481;DHT22;10399;50.754;3.366;2022-12-07T04:54:15;7.20;99.90
20481;DHT22;10399;50.754;3.366;2022-12-07T04:56:44;7.20;99.90
20481;DHT22;10399;50.754;3.366;2022-12-07T04:59:11;7.20;99.90
20481;DHT22;10399;50.754;3.366;2022-12-07T05:01:39;7.20;99.90
20481;DHT22;10399;50.754;3.366;2022-12-07T05:04:07;7.20;99.90
20481;DHT22;10399;50.754;3.366;2022-12-07T05:06:34;7.20;99.90
20481;DHT22;10399;50.754;3.366;2022-12-07T05:09:02;7.20;99.90
20481;DHT22;10399;50.754;3.366;2022-12-07T05:11:29;7.30;99.90
20481;DHT22;10399;50.754;3.366;2022-12-07T05:14:19;7.20;99.90
20481;DHT22;10399;50.754;3.366;2022-12-07T05:16:48;7.10;99.90
20481;DHT22;10399;50.754;3.366;2022-12-07T05:19:17;7.20;99.90
20481;DHT22;10399;50.754;3.366;2022-12-07T05:21:45;7.20;99.90
20481;DHT22;10399;50.754;3.366;2022-12-07T05:24:14;7.30;99.90
20481;DHT22;10399;50.754;3.366;2022-12-07T05:26:41;7.10;99.90
20481;DHT22;10399;50.754;3.366;2022-12-07T05:29:12;7.00;99.90
20481;DHT22;10399;50.754;3.366;2022-12-07T05:31:39;6.90;99.90
20481;DHT22;10399;50.754;3.366;2022-12-07T05:34:06;7.00;99.90
20481;DHT22;10399;50.754;3.366;2022-12-07T05:36:34;7.00;99.90
20481;DHT22;10399;50.754;3.366;2022-12-07T05:39:01;6.90;99.90
20481;DHT22;10399;50.754;3.366;2022-12-07T05:41:28;6.90;99.90
20481;DHT22;10399;50.754;3.366;2022-12-07T05:44:14;6.90;99.90
20481;DHT22;10399;50.754;3.366;2022-12-07T05:46:41;6.90;99.90
20481;DHT22;10399;50.754;3.366;2022-12-07T05:49:07;6.80;99.90
20481;DHT22;10399;50.754;3.366;2022-12-07T05:51:35;6.70;99.90
20481;DHT22;10399;50.754;3.366;2022-12-07T05:54:02;6.70;99.90
20481;DHT22;10399;50.754;3.366;2022-12-07T05:56:29;6.70;99.90
20481;DHT22;10399;50.754;3.366;2022-12-07T05:58:56;6.70;99.90
20481;DHT22;10399;50.754;3.366;2022-12-07T06:04:24;6.70;99.90
20481;DHT22;10399;50.754;3.366;2022-12-07T06:06:51;6.70;99.90
20481;DHT22;10399;50.754;3.366;2022-12-07T06:09:21;6.60;99.90
20481;DHT22;10399;50.754;3.366;2022-12-07T06:11:49;6.70;99.90
20481;DHT22;10399;50.754;3.366;2022-12-07T06:14:36;6.70;99.90
20481;DHT22;10399;50.754;3.366;2022-12-07T06:17:04;6.60;99.90
20481;DHT22;10399;50.754;3.366;2022-12-07T06:19:32;6.70;99.90
20481;DHT22;10399;50.754;3.366;2022-12-07T06:21:59;6.70;99.90
20481;DHT22;10399;50.754;3.366;2022-12-07T06:24:27;6.60;99.90
20481;DHT22;10399;50.754;3.366;2022-12-07T06:26:54;6.40;99.90
20481;DHT22;10399;50.754;3.366;2022-12-07T06:29:21;6.40;99.90
20481;DHT22;10399;50.754;3.366;2022-12-07T06:31:48;6.30;99.90
20481;DHT22;10399;50.754;3.366;2022-12-07T06:34:18;6.50;99.90
20481;DHT22;10399;50.754;3.366;2022-12-07T06:36:45;6.60;99.90
20481;DHT22;10399;50.754;3.366;2022-12-07T06:39:19;6.60;99.90
20481;DHT22;10399;50.754;3.366;2022-12-07T06:41:46;6.70;99.90
20481;DHT22;10399;50.754;3.366;2022-12-07T06:44:14;6.60;99.90
20481;DHT22;10399;50.754;3.366;2022-12-07T06:46:41;6.60;99.90
20481;DHT22;10399;50.754;3.366;2022-12-07T06:49:08;6.50;99.90
20481;DHT22;10399;50.754;3.366;2022-12-07T06:51:36;6.40;99.90
20481;DHT22;10399;50.754;3.366;2022-12-07T06:54:03;6.20;99.90
20481;DHT22;10399;50.754;3.366;2022-12-07T06:56:30;6.20;99.90
20481;DHT22;10399;50.754;3.366;2022-12-07T06:58:57;6.10;99.90
20481;DHT22;10399;50.754;3.366;2022-12-07T07:01:25;6.10;99.90
20481;DHT22;10399;50.754;3.366;2022-12-07T07:03:52;6.10;99.90
20481;DHT22;10399;50.754;3.366;2022-12-07T07:06:19;6.10;99.90
20481;DHT22;10399;50.754;3.366;2022-12-07T07:08:46;6.30;99.90
20481;DHT22;10399;50.754;3.366;2022-12-07T07:11:13;6.40;99.90
20481;DHT22;10399;50.754;3.366;2022-12-07T07:13:40;6.40;99.90
20481;DHT22;10399;50.754;3.366;2022-12-07T07:16:08;6.30;99.90
20481;DHT22;10399;50.754;3.366;2022-12-07T07:18:35;6.30;99.90
20481;DHT22;10399;50.754;3.366;2022-12-07T07:21:02;6.30;99.90
20481;DHT22;10399;50.754;3.366;2022-12-07T07:23:30;6.40;99.90
20481;DHT22;10399;50.754;3.366;2022-12-07T07:25:57;6.50;99.90
20481;DHT22;10399;50.754;3.366;2022-12-07T07:28:24;6.50;99.90
20481;DHT22;10399;50.754;3.366;2022-12-07T07:30:51;6.50;99.90
20481;DHT22;10399;50.754;3.366;2022-12-07T07:33:18;6.50;99.90
20481;DHT22;10399;50.754;3.366;2022-12-07T07:35:45;6.50;99.90
20481;DHT22;10399;50.754;3.366;2022-12-07T07:38:12;6.50;99.90
20481;DHT22;10399;50.754;3.366;2022-12-07T07:40:39;6.60;99.90
20481;DHT22;10399;50.754;3.366;2022-12-07T07:43:07;6.50;99.90
20481;DHT22;10399;50.754;3.366;2022-12-07T07:45:34;6.40;99.90
20481;DHT22;10399;50.754;3.366;2022-12-07T07:48:00;6.30;99.90
20481;DHT22;10399;50.754;3.366;2022-12-07T07:50:28;6.20;99.90
20481;DHT22;10399;50.754;3.366;2022-12-07T07:52:57;6.10;99.90
20481;DHT22;10399;50.754;3.366;2022-12-07T07:55:24;6.20;99.90
20481;DHT22;10399;50.754;3.366;2022-12-07T07:57:51;6.10;99.90
20481;DHT22;10399;50.754;3.366;2022-12-07T08:00:21;6.10;99.90
20481;DHT22;10399;50.754;3.366;2022-12-07T08:02:48;6.10;99.90
20481;DHT22;10399;50.754;3.366;2022-12-07T08:05:15;6.10;99.90
20481;DHT22;10399;50.754;3.366;2022-12-07T08:07:43;6.10;99.90
20481;DHT22;10399;50.754;3.366;2022-12-07T08:10:12;6.10;99.90
20481;DHT22;10399;50.754;3.366;2022-12-07T08:12:40;6.20;99.90
20481;DHT22;10399;50.754;3.366;2022-12-07T08:15:29;6.40;99.90
20481;DHT22;10399;50.754;3.366;2022-12-07T08:17:57;6.50;99.90
20481;DHT22;10399;50.754;3.366;2022-12-07T08:20:25;6.60;99.90
20481;DHT22;10399;50.754;3.366;2022-12-07T08:22:52;6.70;99.90
20481;DHT22;10399;50.754;3.366;2022-12-07T08:25:19;6.70;99.90
20481;DHT22;10399;50.754;3.366;2022-12-07T08:27:46;6.60;99.90
20481;DHT22;10399;50.754;3.366;2022-12-07T08:30:14;6.70;99.90
20481;DHT22;10399;50.754;3.366;2022-12-07T08:32:41;6.80;99.90
20481;DHT22;10399;50.754;3.366;2022-12-07T08:35:08;6.80;99.90
20481;DHT22;10399;50.754;3.366;2022-12-07T08:37:35;6.90;99.90
20481;DHT22;10399;50.754;3.366;2022-12-07T08:40:04;7.10;99.90
20481;DHT22;10399;50.754;3.366;2022-12-07T08:42:31;7.10;99.90
20481;DHT22;10399;50.754;3.366;2022-12-07T08:45:10;7.20;99.90
20481;DHT22;10399;50.754;3.366;2022-12-07T08:47:41;7.30;99.90
20481;DHT22;10399;50.754;3.366;2022-12-07T08:50:10;7.30;99.90
20481;DHT22;10399;50.754;3.366;2022-12-07T08:52:39;7.40;99.90
20481;DHT22;10399;50.754;3.366;2022-12-07T08:55:08;7.40;99.90
20481;DHT22;10399;50.754;3.366;2022-12-07T08:57:36;7.50;99.90
20481;DHT22;10399;50.754;3.366;2022-12-07T09:00:05;7.40;99.90
20481;DHT22;10399;50.754;3.366;2022-12-07T09:02:32;7.60;99.90
20481;DHT22;10399;50.754;3.366;2022-12-07T09:05:00;7.70;99.90
20481;DHT22;10399;50.754;3.366;2022-12-07T09:07:27;7.80;99.90
20481;DHT22;10399;50.754;3.366;2022-12-07T09:09:54;7.70;99.90
20481;DHT22;10399;50.754;3.366;2022-12-07T09:12:21;7.70;99.90
20481;DHT22;10399;50.754;3.366;2022-12-07T09:14:48;7.80;99.90
20481;DHT22;10399;50.754;3.366;2022-12-07T09:17:15;7.60;99.90
20481;DHT22;10399;50.754;3.366;2022-12-07T09:19:42;7.50;99.90
20481;DHT22;10399;50.754;3.366;2022-12-07T09:22:09;7.60;99.90
20481;DHT22;10399;50.754;3.366;2022-12-07T09:24:37;7.50;99.90
20481;DHT22;10399;50.754;3.366;2022-12-07T09:27:04;7.60;99.90
20481;DHT22;10399;50.754;3.366;2022-12-07T09:29:31;7.70;99.90
20481;DHT22;10399;50.754;3.366;2022-12-07T09:31:59;7.70;99.90
20481;DHT22;10399;50.754;3.366;2022-12-07T09:34:26;7.70;99.90
20481;DHT22;10399;50.754;3.366;2022-12-07T09:36:53;7.60;99.90
20481;DHT22;10399;50.754;3.366;2022-12-07T09:39:20;7.80;99.90
20481;DHT22;10399;50.754;3.366;2022-12-07T09:41:47;7.70;99.90
20481;DHT22;10399;50.754;3.366;2022-12-07T09:44:23;7.70;99.90
20481;DHT22;10399;50.754;3.366;2022-12-07T09:46:51;7.80;99.90
20481;DHT22;10399;50.754;3.366;2022-12-07T09:49:22;7.80;99.90
20481;DHT22;10399;50.754;3.366;2022-12-07T09:54:40;7.90;99.90
20481;DHT22;10399;50.754;3.366;2022-12-07T09:57:10;7.90;99.90
20481;DHT22;10399;50.754;3.366;2022-12-07T09:59:37;8.10;99.90
20481;DHT22;10399;50.754;3.366;2022-12-07T10:03:04;8.10;99.90
20481;DHT22;10399;50.754;3.366;2022-12-07T10:05:16;7.80;99.90
20481;DHT22;10399;50.754;3.366;2022-12-07T10:07:50;7.90;99.90
20481;DHT22;10399;50.754;3.366;2022-12-07T10:10:30;7.80;99.90
20481;DHT22;10399;50.754;3.366;2022-12-07T10:13:09;7.70;99.90
20481;DHT22;10399;50.754;3.366;2022-12-07T10:20:46;7.80;99.90
20481;DHT22;10399;50.754;3.366;2022-12-07T10:23:16;7.70;99.90
20481;DHT22;10399;50.754;3.366;2022-12-07T10:25:44;7.70;99.90
20481;DHT22;10399;50.754;3.366;2022-12-07T10:28:17;7.80;99.90
20481;DHT22;10399;50.754;3.366;2022-12-07T10:30:58;7.70;99.90
20481;DHT22;10399;50.754;3.366;2022-12-07T10:33:30;7.80;99.90
20481;DHT22;10399;50.754;3.366;2022-12-07T10:35:58;7.70;99.90
20481;DHT22;10399;50.754;3.366;2022-12-07T10:38:27;7.60;99.90
20481;DHT22;10399;50.754;3.366;2022-12-07T10:41:07;7.60;99.90
20481;DHT22;10399;50.754;3.366;2022-12-07T10:43:35;7.80;99.90
20481;DHT22;10399;50.754;3.366;2022-12-07T10:52:44;8.30;99.90
20481;DHT22;10399;50.754;3.366;2022-12-07T11:01:10;9.10;99.90
20481;DHT22;10399;50.754;3.366;2022-12-07T11:11:48;10.40;99.90
20481;DHT22;10399;50.754;3.366;2022-12-07T11:17:45;10.90;99.90
20481;DHT22;10399;50.754;3.366;2022-12-07T11:25:34;10.60;99.90
20481;DHT22;10399;50.754;3.366;2022-12-07T11:30:57;10.90;99.90
20481;DHT22;10399;50.754;3.366;2022-12-07T11:39:14;11.80;99.90
20481;DHT22;10399;50.754;3.366;2022-12-07T11:41:44;12.20;99.90
20481;DHT22;10399;50.754;3.366;2022-12-07T11:44:36;12.20;99.90
20481;DHT22;10399;50.754;3.366;2022-12-07T12:01:16;10.70;99.90
20481;DHT22;10399;50.754;3.366;2022-12-07T12:03:51;10.60;99.90
20481;DHT22;10399;50.754;3.366;2022-12-07T12:06:20;10.40;99.90
20481;DHT22;10399;50.754;3.366;2022-12-07T12:15:20;10.30;99.90
20481;DHT22;10399;50.754;3.366;2022-12-07T12:23:17;10.40;99.90
20481;DHT22;10399;50.754;3.366;2022-12-07T12:26:00;10.30;99.90
20481;DHT22;10399;50.754;3.366;2022-12-07T12:31:32;10.10;99.90
20481;DHT22;10399;50.754;3.366;2022-12-07T12:34:04;10.10;99.90
20481;DHT22;10399;50.754;3.366;2022-12-07T12:36:47;9.90;99.90
20481;DHT22;10399;50.754;3.366;2022-12-07T12:39:21;10.00;99.90
20481;DHT22;10399;50.754;3.366;2022-12-07T12:41:58;9.80;99.90
20481;DHT22;10399;50.754;3.366;2022-12-07T12:47:03;9.60;99.90
20481;DHT22;10399;50.754;3.366;2022-12-07T12:49:39;9.60;99.90
20481;DHT22;10399;50.754;3.366;2022-12-07T12:57:36;9.60;99.90
20481;DHT22;10399;50.754;3.366;2022-12-07T13:00:17;9.50;99.90
20481;DHT22;10399;50.754;3.366;2022-12-07T13:02:56;9.50;99.90
20481;DHT22;10399;50.754;3.366;2022-12-07T13:05:30;9.60;99.90
20481;DHT22;10399;50.754;3.366;2022-12-07T13:08:24;9.50;99.90
20481;DHT22;10399;50.754;3.366;2022-12-07T13:11:17;9.50;99.90
20481;DHT22;10399;50.754;3.366;2022-12-07T13:13:45;9.40;99.90
20481;DHT22;10399;50.754;3.366;2022-12-07T13:18:40;9.30;99.90
20481;DHT22;10399;50.754;3.366;2022-12-07T13:26:38;9.20;99.90
20481;DHT22;10399;50.754;3.366;2022-12-07T13:31:45;9.10;99.90
20481;DHT22;10399;50.754;3.366;2022-12-07T13:34:35;9.10;99.90
20481;DHT22;10399;50.754;3.366;2022-12-07T13:37:28;9.10;99.90
20481;DHT22;10399;50.754;3.366;2022-12-07T13:40:19;9.00;99.90
20481;DHT22;10399;50.754;3.366;2022-12-07T13:42:46;8.80;99.90
20481;DHT22;10399;50.754;3.366;2022-12-07T13:45:25;8.60;99.90
20481;DHT22;10399;50.754;3.366;2022-12-07T13:50:51;8.70;99.90
20481;DHT22;10399;50.754;3.366;2022-12-07T13:53:18;8.80;99.90
20481;DHT22;10399;50.754;3.366;2022-12-07T13:55:49;8.50;99.90
20481;DHT22;10399;50.754;3.366;2022-12-07T13:58:21;8.70;99.90
20481;DHT22;10399;50.754;3.366;2022-12-07T14:00:48;8.40;99.90
20481;DHT22;10399;50.754;3.366;2022-12-07T14:05:44;8.60;99.90
20481;DHT22;10399;50.754;3.366;2022-12-07T14:16:02;8.70;99.90
20481;DHT22;10399;50.754;3.366;2022-12-07T14:18:40;8.90;99.90
20481;DHT22;10399;50.754;3.366;2022-12-07T14:23:40;9.00;99.90
20481;DHT22;10399;50.754;3.366;2022-12-07T14:26:12;9.20;99.90
20481;DHT22;10399;50.754;3.366;2022-12-07T14:28:42;9.30;99.90
20481;DHT22;10399;50.754;3.366;2022-12-07T14:31:24;9.30;99.90
20481;DHT22;10399;50.754;3.366;2022-12-07T14:33:59;9.50;99.90
20481;DHT22;10399;50.754;3.366;2022-12-07T14:36:26;9.40;99.90
20481;DHT22;10399;50.754;3.366;2022-12-07T14:38:54;9.60;99.90
20481;DHT22;10399;50.754;3.366;2022-12-07T14:41:22;9.50;99.90
20481;DHT22;10399;50.754;3.366;2022-12-07T14:44:12;9.40;99.90
20481;DHT22;10399;50.754;3.366;2022-12-07T14:46:54;9.50;99.90
20481;DHT22;10399;50.754;3.366;2022-12-07T14:49:42;9.50;99.90
20481;DHT22;10399;50.754;3.366;2022-12-07T14:52:19;9.60;99.90
20481;DHT22;10399;50.754;3.366;2022-12-07T14:55:24;9.60;99.90
20481;DHT22;10399;50.754;3.366;2022-12-07T14:57:52;9.50;99.90
20481;DHT22;10399;50.754;3.366;2022-12-07T15:00:20;9.50;99.90
20481;DHT22;10399;50.754;3.366;2022-12-07T15:02:49;9.40;99.90
20481;DHT22;10399;50.754;3.366;2022-12-07T15:05:17;9.10;99.90
20481;DHT22;10399;50.754;3.366;2022-12-07T15:07:49;8.90;99.90
20481;DHT22;10399;50.754;3.366;2022-12-07T15:10:50;8.90;99.90
20481;DHT22;10399;50.754;3.366;2022-12-07T15:13:25;9.00;99.90
20481;DHT22;10399;50.754;3.366;2022-12-07T15:16:13;8.70;99.90
20481;DHT22;10399;50.754;3.366;2022-12-07T15:18:42;8.70;99.90
20481;DHT22;10399;50.754;3.366;2022-12-07T15:21:29;8.40;99.90
20481;DHT22;10399;50.754;3.366;2022-12-07T15:23:56;8.40;99.90
20481;DHT22;10399;50.754;3.366;2022-12-07T15:26:23;8.30;99.90
20481;DHT22;10399;50.754;3.366;2022-12-07T15:28:53;8.10;99.90
20481;DHT22;10399;50.754;3.366;2022-12-07T15:31:20;8.00;99.90
20481;DHT22;10399;50.754;3.366;2022-12-07T15:34:08;8.00;99.90
20481;DHT22;10399;50.754;3.366;2022-12-07T15:36:35;8.00;99.90
20481;DHT22;10399;50.754;3.366;2022-12-07T15:39:03;8.10;99.90
20481;DHT22;10399;50.754;3.366;2022-12-07T15:41:40;8.10;99.90
20481;DHT22;10399;50.754;3.366;2022-12-07T15:44:13;8.30;99.90
20481;DHT22;10399;50.754;3.366;2022-12-07T15:46:59;8.30;99.90
20481;DHT22;10399;50.754;3.366;2022-12-07T15:49:27;8.30;99.90
20481;DHT22;10399;50.754;3.366;2022-12-07T15:51:54;8.40;99.90
20481;DHT22;10399;50.754;3.366;2022-12-07T15:54:23;8.40;99.90
20481;DHT22;10399;50.754;3.366;2022-12-07T15:56:51;8.50;99.90
20481;DHT22;10399;50.754;3.366;2022-12-07T15:59:18;8.60;99.90
20481;DHT22;10399;50.754;3.366;2022-12-07T16:01:45;8.70;99.90
20481;DHT22;10399;50.754;3.366;2022-12-07T16:04:13;8.60;99.90
20481;DHT22;10399;50.754;3.366;2022-12-07T16:06:40;8.50;99.90
20481;DHT22;10399;50.754;3.366;2022-12-07T16:09:14;8.30;99.90
20481;DHT22;10399;50.754;3.366;2022-12-07T16:11:45;8.30;99.90
20481;DHT22;10399;50.754;3.366;2022-12-07T16:14:16;8.20;99.90
20481;DHT22;10399;50.754;3.366;2022-12-07T16:16:45;8.10;99.90
20481;DHT22;10399;50.754;3.366;2022-12-07T16:19:16;8.00;99.90
20481;DHT22;10399;50.754;3.366;2022-12-07T16:21:44;8.10;99.90
20481;DHT22;10399;50.754;3.366;2022-12-07T16:24:17;8.00;99.90
20481;DHT22;10399;50.754;3.366;2022-12-07T16:26:45;7.80;99.90
20481;DHT22;10399;50.754;3.366;2022-12-07T16:29:18;7.80;99.90
20481;DHT22;10399;50.754;3.366;2022-12-07T16:31:47;7.70;99.90
20481;DHT22;10399;50.754;3.366;2022-12-07T16:34:14;7.60;99.90
20481;DHT22;10399;50.754;3.366;2022-12-07T16:36:41;7.50;99.90
20481;DHT22;10399;50.754;3.366;2022-12-07T16:39:28;7.50;99.90
20481;DHT22;10399;50.754;3.366;2022-12-07T16:41:56;7.50;99.90
20481;DHT22;10399;50.754;3.366;2022-12-07T16:44:23;7.30;99.90
20481;DHT22;10399;50.754;3.366;2022-12-07T16:46:51;7.30;99.90
20481;DHT22;10399;50.754;3.366;2022-12-07T16:49:21;7.30;99.90
20481;DHT22;10399;50.754;3.366;2022-12-07T16:51:51;7.40;99.90
20481;DHT22;10399;50.754;3.366;2022-12-07T16:54:39;7.60;99.90
20481;DHT22;10399;50.754;3.366;2022-12-07T16:57:06;7.80;99.90
20481;DHT22;10399;50.754;3.366;2022-12-07T16:59:33;7.60;99.90
20481;DHT22;10399;50.754;3.366;2022-12-07T17:02:00;7.60;99.90
20481;DHT22;10399;50.754;3.366;2022-12-07T17:04:27;7.50;99.90
20481;DHT22;10399;50.754;3.366;2022-12-07T17:06:54;7.80;99.90
20481;DHT22;10399;50.754;3.366;2022-12-07T17:09:21;7.70;99.90
20481;DHT22;10399;50.754;3.366;2022-12-07T17:11:48;7.60;99.90
20481;DHT22;10399;50.754;3.366;2022-12-07T17:14:16;7.60;99.90
20481;DHT22;10399;50.754;3.366;2022-12-07T17:17:02;7.40;99.90
20481;DHT22;10399;50.754;3.366;2022-12-07T17:19:31;7.40;99.90
20481;DHT22;10399;50.754;3.366;2022-12-07T17:21:58;7.50;99.90
20481;DHT22;10399;50.754;3.366;2022-12-07T17:24:25;7.70;99.90
20481;DHT22;10399;50.754;3.366;2022-12-07T17:26:52;7.80;99.90
20481;DHT22;10399;50.754;3.366;2022-12-07T17:29:20;7.80;99.90
20481;DHT22;10399;50.754;3.366;2022-12-07T17:31:48;7.70;99.90
20481;DHT22;10399;50.754;3.366;2022-12-07T17:34:18;7.50;99.90
20481;DHT22;10399;50.754;3.366;2022-12-07T17:36:46;7.50;99.90
20481;DHT22;10399;50.754;3.366;2022-12-07T17:39:16;7.60;99.90
20481;DHT22;10399;50.754;3.366;2022-12-07T17:41:44;7.60;99.90
20481;DHT22;10399;50.754;3.366;2022-12-07T17:44:29;7.70;99.90
20481;DHT22;10399;50.754;3.366;2022-12-07T17:46:57;7.60;99.90
20481;DHT22;10399;50.754;3.366;2022-12-07T17:49:26;7.50;99.90
20481;DHT22;10399;50.754;3.366;2022-12-07T17:51:53;7.40;99.90
20481;DHT22;10399;50.754;3.366;2022-12-07T17:54:39;7.40;99.90
20481;DHT22;10399;50.754;3.366;2022-12-07T17:57:06;7.30;99.90
20481;DHT22;10399;50.754;3.366;2022-12-07T17:59:34;7.30;99.90
20481;DHT22;10399;50.754;3.366;2022-12-07T18:02:01;7.10;99.90
20481;DHT22;10399;50.754;3.366;2022-12-07T18:04:28;7.20;99.90
20481;DHT22;10399;50.754;3.366;2022-12-07T18:06:55;7.20;99.90
20481;DHT22;10399;50.754;3.366;2022-12-07T18:09:22;7.00;99.90
20481;DHT22;10399;50.754;3.366;2022-12-07T18:11:50;7.20;99.90
20481;DHT22;10399;50.754;3.366;2022-12-07T18:14:17;7.10;99.90
20481;DHT22;10399;50.754;3.366;2022-12-07T18:16:45;7.10;99.90
20481;DHT22;10399;50.754;3.366;2022-12-07T18:19:12;7.20;99.90
20481;DHT22;10399;50.754;3.366;2022-12-07T18:21:40;7.20;99.90
20481;DHT22;10399;50.754;3.366;2022-12-07T18:24:10;7.10;99.90
20481;DHT22;10399;50.754;3.366;2022-12-07T18:26:39;7.10;99.90
20481;DHT22;10399;50.754;3.366;2022-12-07T18:29:08;7.00;99.90
20481;DHT22;10399;50.754;3.366;2022-12-07T18:31:36;7.20;99.90
20481;DHT22;10399;50.754;3.366;2022-12-07T18:34:05;7.30;99.90
20481;DHT22;10399;50.754;3.366;2022-12-07T18:36:42;7.30;99.90